TimeAKST,TemperatureF,Dew PointF,Humidity,Sea Level PressureIn,VisibilityMPH,Wind Direction,Wind SpeedMPH,Gust SpeedMPH,PrecipitationIn,Events,Conditions,WindDirDegrees,DateUTC
12:53 AM,-27.0,-32.1,77,30.64,10.0,NE,11.5,-,N/A,,Clear,50,2013-03-03 09:53:00
1:53 AM,-27.9,-33.0,77,30.64,10.0,NE,11.5,-,N/A,,Clear,50,2013-03-03 10:53:00
3:53 AM,-27.0,-34.1,69,30.66,10.0,NE,11.5,-,N/A,,Clear,50,2013-03-03 12:53:00
4:53 AM,-29.9,-9999,N/A,30.66,10.0,NE,12.7,-,N/A,,Clear,50,2013-03-03 13:53:00
5:53 AM,-29.9,-9999,N/A,30.65,10.0,NE,13.8,-,N/A,,Clear,50,2013-03-03 14:53:00
6:53 AM,-29.9,-9999,N/A,30.65,7.0,NE,13.8,-,N/A,,Clear,50,2013-03-03 15:53:00
7:53 AM,-29.9,-9999,N/A,30.63,5.0,ENE,13.8,-,N/A,,Haze,60,2013-03-03 16:53:00
8:53 AM,-29.9,-9999,N/A,30.64,6.0,NE,11.5,-,N/A,,Haze,50,2013-03-03 17:53:00
9:53 AM,-29.0,-33.0,81,30.62,6.0,NE,15.0,-,N/A,,Clear,50,2013-03-03 18:53:00
10:53 AM,-27.0,-31.0,81,30.64,5.0,NE,16.1,-,N/A,,Clear,50,2013-03-03 19:53:00
11:09 AM,-25.6,-31.0,76,30.62,1.8,ENE,16.1,-,N/A,,Haze,60,2013-03-03 20:09:00
11:38 AM,-25.6,-29.2,83,30.61,0.8,ENE,18.4,-,N/A,,Clear,60,2013-03-03 20:38:00
11:48 AM,-25.6,-29.2,83,30.61,1.2,ENE,17.3,-,N/A,,Clear,60,2013-03-03 20:48:00
11:53 AM,-25.1,-29.9,78,30.62,1.2,ENE,18.4,-,N/A,,Haze,60,2013-03-03 20:53:00
12:24 PM,-25.6,-29.2,83,30.60,1.0,ENE,17.3,-,N/A,,Mist,60,2013-03-03 21:24:00
12:31 PM,-23.8,-29.2,76,30.60,0.8,ENE,19.6,-,N/A,,Haze,60,2013-03-03 21:31:00
12:53 PM,-24.0,-29.0,77,30.60,0.5,ENE,19.6,-,N/A,,Haze,60,2013-03-03 21:53:00
1:53 PM,-22.0,-27.0,77,30.59,0.2,ENE,21.9,-,N/A,,Haze,70,2013-03-03 22:53:00
2:53 PM,-20.9,-26.0,77,30.58,0.5,ENE,19.6,-,N/A,,Haze,70,2013-03-03 23:53:00
3:08 PM,-20.2,-25.6,76,30.57,0.8,ENE,20.7,-,N/A,,Haze,70,2013-03-04 00:08:00
3:53 PM,-20.9,-25.1,81,30.53,0.2,ENE,24.2,-,N/A,Fog,Light Freezing Fog,70,2013-03-04 00:53:00
4:05 PM,-20.2,-25.6,76,30.54,0.2,ENE,23.0,-,N/A,Fog,Light Freezing Fog,70,2013-03-04 01:05:00
4:53 PM,-20.9,-25.1,81,30.56,0.5,East,21.9,-,N/A,Fog,Light Freezing Fog,80,2013-03-04 01:53:00
5:53 PM,-20.0,-24.0,82,30.52,0.2,East,29.9,-,N/A,Fog,Light Freezing Fog,80,2013-03-04 02:53:00
6:38 PM,-20.2,-23.8,83,30.50,0.2,East,31.1,40.3,N/A,Fog,Light Freezing Fog,80,2013-03-04 03:38:00
6:53 PM,-20.0,-24.0,82,30.51,0.2,East,29.9,38.0,N/A,Fog,Light Freezing Fog,80,2013-03-04 03:53:00
7:11 PM,-20.2,-23.8,83,30.51,0.5,East,27.6,-,N/A,Fog,Light Freezing Fog,80,2013-03-04 04:11:00
7:53 PM,-20.0,-24.0,82,30.51,0.5,East,27.6,36.8,N/A,Fog,Light Freezing Fog,80,2013-03-04 04:53:00
8:53 PM,-20.0,-24.0,82,30.52,0.8,East,23.0,-,N/A,,Mist,80,2013-03-04 05:53:00
9:48 PM,-20.2,-25.6,76,30.48,1.0,East,25.3,29.9,N/A,,Haze,80,2013-03-04 06:48:00
9:53 PM,-20.0,-24.0,82,30.49,1.0,East,21.9,-,N/A,,Mist,80,2013-03-04 06:53:00
10:21 PM,-20.2,-23.8,83,30.49,0.8,East,21.9,28.8,N/A,,Mist,80,2013-03-04 07:21:00
10:31 PM,-20.2,-23.8,83,30.48,1.0,East,23.0,-,N/A,,Overcast,80,2013-03-04 07:31:00
10:38 PM,-20.2,-23.8,83,30.48,0.8,East,23.0,-,N/A,,Overcast,80,2013-03-04 07:38:00
10:51 PM,-20.2,-23.8,83,30.48,1.2,East,23.0,-,N/A,,Overcast,90,2013-03-04 07:51:00
10:53 PM,-20.0,-24.0,82,30.49,1.0,East,23.0,-,N/A,,Overcast,90,2013-03-04 07:53:00
11:06 PM,-20.2,-23.8,83,30.48,0.8,East,24.2,-,N/A,,Overcast,80,2013-03-04 08:06:00
11:20 PM,-20.2,-23.8,83,30.49,1.0,East,23.0,29.9,N/A,,Overcast,90,2013-03-04 08:20:00
11:53 PM,-20.0,-24.0,82,30.50,0.8,East,23.0,-,N/A,,Overcast,90,2013-03-04 08:53:00